createdAt,value
2022-10-16T00:01:41.180Z,19.18
2022-10-16T00:04:08.195Z,19.18
2022-10-16T00:06:35.611Z,19.16
2022-10-16T00:09:02.896Z,19.13
2022-10-16T00:11:34.620Z,19.14
2022-10-16T00:14:05.952Z,19.14
2022-10-16T00:16:33.525Z,19.14
2022-10-16T00:19:00.607Z,19.16
2022-10-16T00:21:31.477Z,19.17
2022-10-16T00:24:17.145Z,19.15
2022-10-16T00:26:44.301Z,19.15
2022-10-16T00:29:11.978Z,19.14
2022-10-16T00:31:39.278Z,19.15
2022-10-16T00:34:06.514Z,19.15
2022-10-16T00:36:33.505Z,19.15
2022-10-16T00:41:34.492Z,19.13
2022-10-16T00:44:05.433Z,19.13
2022-10-16T00:46:43.325Z,19.12
2022-10-16T00:49:14.506Z,19.10
2022-10-16T00:51:54.999Z,19.10
2022-10-16T00:54:27.980Z,19.10
2022-10-16T00:56:56.735Z,19.09
2022-10-16T00:59:39.964Z,19.11
2022-10-16T01:02:11.939Z,19.09
2022-10-16T01:04:44.875Z,19.09
2022-10-16T01:07:25.804Z,19.08
2022-10-16T01:10:28.245Z,19.06
2022-10-16T01:13:07.978Z,19.04
2022-10-16T01:15:43.882Z,19.02
2022-10-16T01:18:32.571Z,19.00
2022-10-16T01:21:05.653Z,18.99
2022-10-16T01:23:52.913Z,18.97
2022-10-16T01:26:45.985Z,18.95
2022-10-16T01:29:31.452Z,18.91
2022-10-16T01:32:06.687Z,18.90
2022-10-16T01:34:40.525Z,18.89
2022-10-16T01:37:12.658Z,18.86
2022-10-16T01:39:43.724Z,18.86
2022-10-16T01:42:17.973Z,18.87
2022-10-16T01:44:47.466Z,18.86
2022-10-16T01:47:15.918Z,18.84
2022-10-16T01:49:46.139Z,18.83
2022-10-16T01:52:18.863Z,18.82
2022-10-16T01:54:49.328Z,18.81
2022-10-16T01:57:18.085Z,18.80
2022-10-16T01:59:53.238Z,18.78
2022-10-16T02:02:23.894Z,18.78
2022-10-16T02:05:00.403Z,18.76
2022-10-16T02:07:27.715Z,18.74
2022-10-16T02:09:55.828Z,18.73
2022-10-16T02:12:29.717Z,18.71
2022-10-16T02:14:56.828Z,18.66
2022-10-16T02:17:25.188Z,18.67
2022-10-16T02:19:56.946Z,18.69
2022-10-16T02:22:48.376Z,18.66
2022-10-16T02:25:36.136Z,18.60
2022-10-16T02:28:45.384Z,18.56
2022-10-16T02:31:18.193Z,18.56
2022-10-16T02:33:47.401Z,18.55
2022-10-16T02:36:14.575Z,18.56
2022-10-16T02:38:42.524Z,18.56
2022-10-16T02:41:09.959Z,18.57
2022-10-16T02:43:36.895Z,18.57
2022-10-16T02:46:04.089Z,18.57
2022-10-16T02:48:31.042Z,18.56
2022-10-16T02:50:58.160Z,18.56
2022-10-16T02:53:25.051Z,18.56
2022-10-16T02:55:52.049Z,18.56
2022-10-16T02:58:19.003Z,18.53
2022-10-16T03:00:45.959Z,18.52
2022-10-16T03:03:12.904Z,18.50
2022-10-16T03:05:39.967Z,18.50
2022-10-16T03:08:07.023Z,18.51
2022-10-16T03:10:33.907Z,18.51
2022-10-16T03:13:00.877Z,18.51
2022-10-16T03:15:29.196Z,18.52
2022-10-16T03:17:59.688Z,18.51
2022-10-16T03:20:27.583Z,18.50
2022-10-16T03:22:54.465Z,18.51
2022-10-16T03:25:21.333Z,18.52
2022-10-16T03:27:48.264Z,18.53
2022-10-16T03:30:15.387Z,18.53
2022-10-16T03:32:42.846Z,18.53
2022-10-16T03:35:09.981Z,18.54
2022-10-16T03:37:37.209Z,18.54
2022-10-16T03:40:05.746Z,18.54
2022-10-16T03:42:32.727Z,18.56
2022-10-16T03:44:59.585Z,18.56
2022-10-16T03:47:26.577Z,18.58
2022-10-16T03:49:53.640Z,18.58
2022-10-16T03:52:20.661Z,18.56
2022-10-16T03:54:47.602Z,18.57
2022-10-16T03:57:14.479Z,18.58
2022-10-16T03:59:41.406Z,18.58
2022-10-16T04:02:08.371Z,18.56
2022-10-16T04:04:35.344Z,18.53
2022-10-16T04:07:02.497Z,18.53
2022-10-16T04:09:29.789Z,18.53
2022-10-16T04:11:56.753Z,18.56
2022-10-16T04:14:23.679Z,18.57
2022-10-16T04:16:50.675Z,18.56
2022-10-16T04:19:17.586Z,18.55
2022-10-16T04:21:45.560Z,18.54
2022-10-16T04:24:13.152Z,18.57
2022-10-16T04:26:40.117Z,18.56
2022-10-16T04:29:08.052Z,18.55
2022-10-16T04:31:35.642Z,18.53
2022-10-16T04:34:03.642Z,18.51
2022-10-16T04:36:30.883Z,18.50
2022-10-16T04:38:57.891Z,18.50
2022-10-16T04:41:24.815Z,18.50
2022-10-16T04:43:51.765Z,18.50
2022-10-16T04:46:18.689Z,18.47
2022-10-16T04:48:45.961Z,18.46
2022-10-16T04:51:12.917Z,18.45
2022-10-16T04:53:39.845Z,18.44
2022-10-16T04:56:07.000Z,18.45
2022-10-16T04:58:34.408Z,18.45
2022-10-16T05:01:01.389Z,18.45
2022-10-16T05:03:28.371Z,18.42
2022-10-16T05:05:55.441Z,18.41
2022-10-16T05:08:22.382Z,18.41
2022-10-16T05:10:53.826Z,18.40
2022-10-16T05:13:24.298Z,18.40
2022-10-16T05:15:51.249Z,18.40
2022-10-16T05:18:24.227Z,18.39
2022-10-16T05:20:53.165Z,18.39
2022-10-16T05:23:22.923Z,18.39
2022-10-16T05:25:56.587Z,18.39
2022-10-16T05:28:23.670Z,18.38
2022-10-16T05:30:50.696Z,18.39
2022-10-16T05:33:18.150Z,18.39
2022-10-16T05:35:46.201Z,18.39
2022-10-16T05:38:13.275Z,18.38
2022-10-16T05:40:40.598Z,18.38
2022-10-16T05:43:07.627Z,18.38
2022-10-16T05:45:35.137Z,18.37
2022-10-16T05:48:02.694Z,18.37
2022-10-16T05:50:29.995Z,18.38
2022-10-16T05:52:58.017Z,18.39
2022-10-16T05:55:25.185Z,18.39
2022-10-16T05:57:55.917Z,18.40
2022-10-16T06:00:23.157Z,18.39
2022-10-16T06:02:50.670Z,18.39
2022-10-16T06:05:17.670Z,18.38
2022-10-16T06:07:44.612Z,18.39
2022-10-16T06:10:11.574Z,18.38
2022-10-16T06:12:38.524Z,18.38
2022-10-16T06:15:06.071Z,18.39
2022-10-16T06:17:33.128Z,18.40
2022-10-16T06:20:00.263Z,18.40
2022-10-16T06:22:27.267Z,18.41
2022-10-16T06:24:54.375Z,18.42
2022-10-16T06:27:21.470Z,18.43
2022-10-16T06:29:48.639Z,18.44
2022-10-16T06:32:15.734Z,18.45
2022-10-16T06:34:44.174Z,18.47
2022-10-16T06:37:11.440Z,18.49
2022-10-16T06:39:38.435Z,18.50
2022-10-16T06:42:05.314Z,18.51
2022-10-16T06:44:36.474Z,18.51
2022-10-16T06:47:04.772Z,18.51
2022-10-16T06:49:31.710Z,18.53
2022-10-16T06:51:58.765Z,18.55
2022-10-16T06:54:25.848Z,18.55
2022-10-16T06:56:55.143Z,18.57
2022-10-16T06:59:22.716Z,18.60
2022-10-16T07:01:49.964Z,18.62
2022-10-16T07:04:16.917Z,18.64
2022-10-16T07:06:44.604Z,18.67
2022-10-16T07:09:12.818Z,18.68
2022-10-16T07:11:41.348Z,18.69
2022-10-16T07:14:18.755Z,18.69
2022-10-16T07:16:46.010Z,18.68
2022-10-16T07:19:15.544Z,18.69
2022-10-16T07:21:43.534Z,18.68
2022-10-16T07:24:17.082Z,18.66
2022-10-16T07:26:46.309Z,18.65
2022-10-16T07:29:22.521Z,18.65
2022-10-16T07:31:50.518Z,18.66
2022-10-16T07:34:20.011Z,18.67
2022-10-16T07:36:50.734Z,18.69
2022-10-16T07:39:18.644Z,18.71
2022-10-16T07:41:45.929Z,18.76
2022-10-16T07:44:13.043Z,18.76
2022-10-16T07:46:40.182Z,18.80
2022-10-16T07:49:07.305Z,18.84
2022-10-16T07:51:34.593Z,18.88
2022-10-16T07:54:02.244Z,18.92
2022-10-16T07:56:29.209Z,18.95
2022-10-16T07:58:57.640Z,19.01
2022-10-16T08:01:24.763Z,19.05
2022-10-16T08:03:52.947Z,19.09
2022-10-16T08:06:25.201Z,19.13
2022-10-16T08:08:56.894Z,19.18
2022-10-16T08:11:24.631Z,19.21
2022-10-16T08:13:51.940Z,19.22
2022-10-16T08:16:19.003Z,19.27
2022-10-16T08:18:46.367Z,19.32
2022-10-16T08:21:20.387Z,19.36
2022-10-16T08:23:52.978Z,19.41
2022-10-16T08:26:24.340Z,19.44
2022-10-16T08:28:52.834Z,19.48
2022-10-16T08:31:20.207Z,19.53
2022-10-16T08:33:48.694Z,19.58
2022-10-16T08:36:17.556Z,19.64
2022-10-16T08:38:45.022Z,19.69
2022-10-16T08:41:19.070Z,19.75
2022-10-16T08:44:09.115Z,19.80
2022-10-16T08:47:13.128Z,19.85
2022-10-16T08:49:44.487Z,19.88
2022-10-16T08:52:16.521Z,19.97
2022-10-16T08:54:48.558Z,20.03
2022-10-16T08:57:24.352Z,20.07
2022-10-16T08:59:55.943Z,20.16
2022-10-16T09:02:39.983Z,20.20
2022-10-16T09:05:16.049Z,20.27
2022-10-16T09:08:02.049Z,20.29
2022-10-16T09:10:40.191Z,20.29
2022-10-16T09:13:27.747Z,20.28
2022-10-16T09:16:09.225Z,20.30
2022-10-16T09:19:05.264Z,20.33
2022-10-16T09:21:37.700Z,20.36
2022-10-16T09:24:29.395Z,20.41
2022-10-16T09:26:57.230Z,20.45
2022-10-16T09:29:27.230Z,20.46
2022-10-16T09:31:58.889Z,20.51
2022-10-16T09:34:36.514Z,20.58
2022-10-16T09:37:14.219Z,20.66
2022-10-16T09:39:53.865Z,20.74
2022-10-16T09:42:37.679Z,20.84
2022-10-16T09:45:05.729Z,20.88
2022-10-16T09:47:37.505Z,20.91
2022-10-16T09:50:21.778Z,20.95
2022-10-16T09:52:49.010Z,20.96
2022-10-16T09:55:19.182Z,21.04
2022-10-16T09:57:56.711Z,21.09
2022-10-16T10:00:25.593Z,21.14
2022-10-16T10:05:27.461Z,21.26
2022-10-16T10:08:00.217Z,21.32
2022-10-16T10:10:31.609Z,21.37
2022-10-16T10:12:59.898Z,21.42
2022-10-16T10:15:34.957Z,21.48
2022-10-16T10:18:04.333Z,21.54
2022-10-16T10:20:39.741Z,21.60
2022-10-16T10:23:27.368Z,21.67
2022-10-16T10:26:25.509Z,21.71
2022-10-16T10:29:09.258Z,21.79
2022-10-16T10:32:03.567Z,21.83
2022-10-16T10:34:42.420Z,21.91
2022-10-16T10:37:30.986Z,21.97
2022-10-16T10:40:15.056Z,22.02
2022-10-16T10:43:09.290Z,22.06
2022-10-16T10:45:45.272Z,22.11
2022-10-16T10:48:53.769Z,22.16
2022-10-16T10:51:23.589Z,22.21
2022-10-16T10:54:13.377Z,22.23
2022-10-16T10:57:03.525Z,22.28
2022-10-16T11:00:11.499Z,22.30
2022-10-16T11:03:08.957Z,22.38
2022-10-16T11:05:38.604Z,22.41
2022-10-16T11:08:14.951Z,22.41
2022-10-16T11:11:12.379Z,22.43
2022-10-16T11:13:56.718Z,22.45
2022-10-16T11:16:54.939Z,22.46
2022-10-16T11:19:38.619Z,22.48
2022-10-16T11:22:18.820Z,22.49
2022-10-16T11:25:15.412Z,22.50
2022-10-16T11:27:51.647Z,22.53
2022-10-16T11:30:31.337Z,22.55
2022-10-16T11:33:19.562Z,22.59
2022-10-16T11:36:04.356Z,22.64
2022-10-16T11:38:44.773Z,22.67
2022-10-16T11:41:50.905Z,22.72
2022-10-16T11:44:23.664Z,22.75
2022-10-16T11:50:40.797Z,22.80
2022-10-16T11:53:44.885Z,22.86
2022-10-16T11:56:19.011Z,22.94
2022-10-16T11:59:00.254Z,23.02
2022-10-16T12:01:39.372Z,23.04
2022-10-16T12:04:28.709Z,23.08
2022-10-16T12:07:15.530Z,23.12
2022-10-16T12:09:43.827Z,23.18
2022-10-16T12:12:46.612Z,23.19
2022-10-16T12:15:54.131Z,23.22
2022-10-16T12:18:26.545Z,23.24
2022-10-16T12:21:06.760Z,23.26
2022-10-16T12:23:52.637Z,23.26
2022-10-16T12:26:33.042Z,23.26
2022-10-16T12:29:23.890Z,23.28
2022-10-16T12:31:57.373Z,23.30
2022-10-16T12:34:38.308Z,23.30
2022-10-16T12:37:22.830Z,23.33
2022-10-16T12:39:51.324Z,23.36
2022-10-16T12:42:27.798Z,23.40
2022-10-16T12:45:25.051Z,23.48
2022-10-16T12:48:06.060Z,23.55
2022-10-16T12:50:40.320Z,23.60
2022-10-16T12:53:27.660Z,23.64
2022-10-16T12:56:13.795Z,23.67
2022-10-16T12:59:24.225Z,23.73
2022-10-16T13:02:29.459Z,23.76
2022-10-16T13:05:11.634Z,23.81
2022-10-16T13:08:27.596Z,23.83
2022-10-16T13:11:24.054Z,23.83
2022-10-16T13:17:23.211Z,23.84
2022-10-16T13:20:21.758Z,23.88
2022-10-16T13:23:04.937Z,23.92
2022-10-16T13:26:01.746Z,23.99
2022-10-16T13:28:33.667Z,24.01
2022-10-16T13:31:02.516Z,24.00
2022-10-16T13:33:43.241Z,24.02
2022-10-16T13:36:37.021Z,24.02
2022-10-16T13:39:22.778Z,24.05
2022-10-16T13:42:10.643Z,24.08
2022-10-16T13:44:45.082Z,24.09
2022-10-16T13:47:21.965Z,24.08
2022-10-16T13:50:05.654Z,24.10
2022-10-16T13:52:33.637Z,24.13
2022-10-16T13:55:02.212Z,24.15
2022-10-16T13:57:30.155Z,24.15
2022-10-16T13:59:57.388Z,24.13
2022-10-16T14:02:40.676Z,24.12
2022-10-16T14:05:11.433Z,24.08
2022-10-16T14:07:39.374Z,24.03
2022-10-16T14:10:21.023Z,24.00
2022-10-16T14:13:00.696Z,23.97
2022-10-16T14:15:29.069Z,23.95
2022-10-16T14:17:56.598Z,23.95
2022-10-16T14:20:32.596Z,23.95
2022-10-16T14:23:06.162Z,23.93
2022-10-16T14:25:33.942Z,23.90
2022-10-16T14:28:24.201Z,23.88
2022-10-16T14:30:58.151Z,23.84
2022-10-16T14:33:31.292Z,23.81
2022-10-16T14:36:14.920Z,23.77
2022-10-16T14:38:58.444Z,23.73
2022-10-16T14:41:26.420Z,23.71
2022-10-16T14:44:03.145Z,23.70
2022-10-16T14:46:37.017Z,23.64
2022-10-16T14:49:23.561Z,23.61
2022-10-16T14:51:51.219Z,23.57
2022-10-16T14:54:19.991Z,23.55
2022-10-16T14:56:59.494Z,23.54
2022-10-16T14:59:35.235Z,23.52
2022-10-16T15:02:33.196Z,23.48
2022-10-16T15:05:21.364Z,23.44
2022-10-16T15:07:50.048Z,23.42
2022-10-16T15:10:22.594Z,23.40
2022-10-16T15:12:51.281Z,23.37
2022-10-16T15:15:24.964Z,23.34
2022-10-16T15:17:54.668Z,23.31
2022-10-16T15:20:29.337Z,23.29
2022-10-16T15:22:57.626Z,23.28
2022-10-16T15:26:03.313Z,23.28
2022-10-16T15:28:30.454Z,23.24
2022-10-16T15:30:58.439Z,23.25
2022-10-16T15:33:29.816Z,23.23
2022-10-16T15:35:58.055Z,23.22
2022-10-16T15:38:26.309Z,23.20
2022-10-16T15:40:53.784Z,23.18
2022-10-16T15:43:21.527Z,23.16
2022-10-16T15:46:02.603Z,23.14
2022-10-16T15:48:31.456Z,23.10
2022-10-16T15:50:59.082Z,23.07
2022-10-16T15:53:26.919Z,23.05
2022-10-16T15:55:54.143Z,23.03
2022-10-16T15:58:21.814Z,23.00
2022-10-16T16:01:05.146Z,22.97
2022-10-16T16:03:33.912Z,22.93
2022-10-16T16:06:10.169Z,22.90
2022-10-16T16:08:38.081Z,22.85
2022-10-16T16:11:11.960Z,22.82
2022-10-16T16:13:39.833Z,22.77
2022-10-16T16:16:13.291Z,22.72
2022-10-16T16:18:41.406Z,22.65
2022-10-16T16:21:08.836Z,22.60
2022-10-16T16:23:36.557Z,22.55
2022-10-16T16:26:15.477Z,22.49
2022-10-16T16:28:44.387Z,22.42
2022-10-16T16:31:11.496Z,22.35
2022-10-16T16:33:39.078Z,22.31
2022-10-16T16:36:11.502Z,22.24
2022-10-16T16:38:38.708Z,22.20
2022-10-16T16:41:16.038Z,22.14
2022-10-16T16:43:44.274Z,22.08
2022-10-16T16:46:12.650Z,22.03
2022-10-16T16:48:39.891Z,21.99
2022-10-16T16:51:17.122Z,21.95
2022-10-16T16:53:47.188Z,21.88
2022-10-16T16:56:14.792Z,21.84
2022-10-16T16:58:42.261Z,21.79
2022-10-16T17:01:20.554Z,21.73
2022-10-16T17:03:52.626Z,21.68
2022-10-16T17:06:30.550Z,21.61
2022-10-16T17:08:59.105Z,21.56
2022-10-16T17:11:29.106Z,21.52
2022-10-16T17:13:59.944Z,21.47
2022-10-16T17:16:34.842Z,21.43
2022-10-16T17:19:04.451Z,21.39
2022-10-16T17:21:32.971Z,21.36
2022-10-16T17:24:01.399Z,21.34
2022-10-16T17:26:29.382Z,21.27
2022-10-16T17:29:00.917Z,21.22
2022-10-16T17:31:32.125Z,21.19
2022-10-16T17:34:00.920Z,21.15
2022-10-16T17:36:31.282Z,21.12
2022-10-16T17:39:01.791Z,21.09
2022-10-16T17:41:29.082Z,21.07
2022-10-16T17:43:56.516Z,21.04
2022-10-16T17:46:43.493Z,21.02
2022-10-16T17:49:11.086Z,20.99
2022-10-16T17:51:38.091Z,20.96
2022-10-16T17:54:05.430Z,20.94
2022-10-16T17:56:32.465Z,20.90
2022-10-16T17:59:02.156Z,20.88
2022-10-16T18:01:36.801Z,20.85
2022-10-16T18:04:09.577Z,20.81
2022-10-16T18:06:37.685Z,20.75
2022-10-16T18:09:06.806Z,20.73
2022-10-16T18:11:34.554Z,20.71
2022-10-16T18:14:02.537Z,20.68
2022-10-16T18:16:31.667Z,20.67
2022-10-16T18:18:59.352Z,20.64
2022-10-16T18:21:27.810Z,20.62
2022-10-16T18:23:55.921Z,20.59
2022-10-16T18:26:23.735Z,20.56
2022-10-16T18:28:56.617Z,20.53
2022-10-16T18:31:26.506Z,20.50
2022-10-16T18:33:56.253Z,20.48
2022-10-16T18:36:29.437Z,20.44
2022-10-16T18:38:58.036Z,20.41
2022-10-16T18:41:26.522Z,20.39
2022-10-16T18:43:54.104Z,20.36
2022-10-16T18:46:23.666Z,20.33
2022-10-16T18:48:54.138Z,20.30
2022-10-16T18:51:22.857Z,20.27
2022-10-16T18:53:54.407Z,20.27
2022-10-16T18:56:23.854Z,20.22
2022-10-16T18:58:53.921Z,20.21
2022-10-16T19:01:24.564Z,20.18
2022-10-16T19:04:05.549Z,20.16
2022-10-16T19:06:42.856Z,20.14
2022-10-16T19:09:11.004Z,20.11
2022-10-16T19:11:41.596Z,20.10
2022-10-16T19:14:11.155Z,20.07
2022-10-16T19:16:39.511Z,20.05
2022-10-16T19:19:08.852Z,20.02
2022-10-16T19:21:40.171Z,20.01
2022-10-16T19:24:08.766Z,19.99
2022-10-16T19:26:38.205Z,19.97
2022-10-16T19:29:09.248Z,19.95
2022-10-16T19:31:36.761Z,19.91
2022-10-16T19:34:06.786Z,19.90
2022-10-16T19:36:37.016Z,19.86
2022-10-16T19:39:10.505Z,19.84
2022-10-16T19:41:38.218Z,19.80
2022-10-16T19:44:08.776Z,19.80
2022-10-16T19:46:36.328Z,19.77
2022-10-16T19:49:08.450Z,19.74
2022-10-16T19:51:36.542Z,19.70
2022-10-16T19:54:12.524Z,19.68
2022-10-16T19:56:40.262Z,19.66
2022-10-16T19:59:09.367Z,19.64
2022-10-16T20:01:36.278Z,19.60
2022-10-16T20:04:03.636Z,19.56
2022-10-16T20:06:30.710Z,19.53
2022-10-16T20:09:01.013Z,19.49
2022-10-16T20:11:35.605Z,19.47
2022-10-16T20:14:03.689Z,19.45
2022-10-16T20:16:32.363Z,19.42
2022-10-16T20:18:59.450Z,19.40
2022-10-16T20:21:31.989Z,19.40
2022-10-16T20:24:01.996Z,19.39
2022-10-16T20:26:29.047Z,19.37
2022-10-16T20:28:56.325Z,19.34
2022-10-16T20:31:27.874Z,19.32
2022-10-16T20:33:57.797Z,19.29
2022-10-16T20:36:26.814Z,19.27
2022-10-16T20:38:54.297Z,19.24
2022-10-16T20:41:21.470Z,19.22
2022-10-16T20:43:50.921Z,19.17
2022-10-16T20:46:24.373Z,19.15
2022-10-16T20:48:52.503Z,19.14
2022-10-16T20:51:30.935Z,19.12
2022-10-16T20:54:01.664Z,19.09
2022-10-16T20:56:31.662Z,19.07
2022-10-16T20:58:58.719Z,19.03
2022-10-16T21:01:28.755Z,19.01
2022-10-16T21:03:59.496Z,18.99
2022-10-16T21:06:27.006Z,18.95
2022-10-16T21:08:54.953Z,18.92
2022-10-16T21:11:26.243Z,18.88
2022-10-16T21:13:55.548Z,18.85
2022-10-16T21:16:22.633Z,18.82
2022-10-16T21:18:50.451Z,18.79
2022-10-16T21:21:33.504Z,18.78
2022-10-16T21:24:00.652Z,18.76
2022-10-16T21:26:29.239Z,18.74
2022-10-16T21:29:03.953Z,18.75
2022-10-16T21:31:32.366Z,18.74
2022-10-16T21:33:59.761Z,18.74
2022-10-16T21:36:30.458Z,18.74
2022-10-16T21:39:04.754Z,18.72
2022-10-16T21:41:32.187Z,18.71
2022-10-16T21:43:59.420Z,18.68
2022-10-16T21:46:30.485Z,18.63
2022-10-16T21:49:02.764Z,18.57
2022-10-16T21:51:36.579Z,18.53
2022-10-16T21:54:06.625Z,18.53
2022-10-16T21:56:34.592Z,18.51
2022-10-16T21:59:02.694Z,18.53
2022-10-16T22:01:31.072Z,18.51
2022-10-16T22:03:58.821Z,18.48
2022-10-16T22:06:27.569Z,18.47
2022-10-16T22:09:00.712Z,18.44
2022-10-16T22:11:37.658Z,18.43
2022-10-16T22:14:13.637Z,18.43
2022-10-16T22:16:42.264Z,18.39
2022-10-16T22:19:11.904Z,18.40
2022-10-16T22:21:41.252Z,18.39
2022-10-16T22:24:08.955Z,18.38
2022-10-16T22:26:36.767Z,18.40
2022-10-16T22:29:05.026Z,18.39
2022-10-16T22:31:32.707Z,18.38
2022-10-16T22:34:02.756Z,18.36
2022-10-16T22:36:29.786Z,18.37
2022-10-16T22:38:57.659Z,18.35
2022-10-16T22:41:25.162Z,18.31
2022-10-16T22:43:52.551Z,18.28
2022-10-16T22:46:26.519Z,18.26
2022-10-16T22:48:55.734Z,18.20
2022-10-16T22:51:24.048Z,18.21
2022-10-16T22:53:51.548Z,18.22
2022-10-16T22:56:21.426Z,18.19
2022-10-16T22:58:48.841Z,18.19
2022-10-16T23:01:36.044Z,18.16
2022-10-16T23:04:03.725Z,18.14
2022-10-16T23:06:31.392Z,18.13
2022-10-16T23:09:01.505Z,18.10
2022-10-16T23:11:30.150Z,18.07
2022-10-16T23:13:57.998Z,18.05
2022-10-16T23:16:25.473Z,18.02
2022-10-16T23:18:53.347Z,18.01
2022-10-16T23:21:25.254Z,17.98
2022-10-16T23:23:54.755Z,17.95
2022-10-16T23:26:27.180Z,17.93
2022-10-16T23:28:58.044Z,17.93
2022-10-16T23:31:26.335Z,17.93
2022-10-16T23:33:54.065Z,17.91
2022-10-16T23:36:22.439Z,17.91
2022-10-16T23:38:50.651Z,17.89
2022-10-16T23:41:19.605Z,17.87
2022-10-16T23:43:46.697Z,17.86
2022-10-16T23:46:15.616Z,17.86
2022-10-16T23:48:42.814Z,17.85
2022-10-16T23:51:10.355Z,17.82
2022-10-16T23:53:37.940Z,17.79
2022-10-16T23:56:05.505Z,17.74
2022-10-16T23:58:32.747Z,17.69
